createdAt,value
2023-02-27T00:03:57.910Z,996
2023-02-27T00:09:17.256Z,996
2023-02-27T00:14:36.151Z,996
2023-02-27T00:19:55.735Z,995.9
2023-02-27T00:25:15.592Z,995.9
2023-02-27T00:30:35.295Z,995.9
2023-02-27T00:35:54.490Z,995.9
2023-02-27T00:46:33.129Z,996.1
2023-02-27T00:51:52.400Z,996.1
2023-02-27T00:57:11.472Z,996.1
2023-02-27T01:02:31.095Z,996.1
2023-02-27T01:07:50.417Z,996.1
2023-02-27T01:13:11.206Z,996.1
2023-02-27T01:18:28.618Z,996.1
2023-02-27T01:23:48.269Z,996.1
2023-02-27T01:29:07.812Z,996
2023-02-27T01:34:27.693Z,995.9
2023-02-27T01:39:46.988Z,995.9
2023-02-27T01:45:06.513Z,995.9
2023-02-27T01:50:25.741Z,995.9
2023-02-27T01:55:45.116Z,996
2023-02-27T02:01:04.858Z,995.9
2023-02-27T02:06:23.730Z,995.9
2023-02-27T02:11:43.230Z,995.9
2023-02-27T02:17:02.301Z,995.9
2023-02-27T02:22:21.873Z,995.9
2023-02-27T02:27:41.658Z,995.9
2023-02-27T02:33:01.149Z,995.9
2023-02-27T02:38:20.494Z,995.9
2023-02-27T02:43:40.273Z,995.9
2023-02-27T02:48:59.405Z,996
2023-02-27T02:54:18.521Z,996
2023-02-27T02:59:37.694Z,996
2023-02-27T03:04:56.858Z,996.1
2023-02-27T03:10:16.647Z,996.1
2023-02-27T03:15:36.418Z,996.1
2023-02-27T03:20:55.984Z,996.2
2023-02-27T03:26:15.811Z,996.3
2023-02-27T03:31:34.951Z,996.3
2023-02-27T03:36:54.225Z,996.4
2023-02-27T03:42:13.603Z,996.4
2023-02-27T03:47:32.969Z,996.3
2023-02-27T03:52:52.315Z,996.3
2023-02-27T03:58:11.853Z,996.4
2023-02-27T04:03:31.008Z,996.4
2023-02-27T04:08:50.177Z,996.4
2023-02-27T04:14:09.376Z,996.4
2023-02-27T04:19:28.847Z,996.4
2023-02-27T04:24:56.515Z,996.5
2023-02-27T04:30:08.343Z,996.5
2023-02-27T04:35:27.234Z,996.6
2023-02-27T04:40:46.706Z,996.6
2023-02-27T04:46:06.645Z,996.7
2023-02-27T04:51:26.481Z,996.7
2023-02-27T04:56:45.416Z,996.7
2023-02-27T05:02:05.730Z,996.8
2023-02-27T05:07:23.871Z,996.8
2023-02-27T05:12:43.761Z,996.8
2023-02-27T05:18:03.887Z,996.8
2023-02-27T05:23:22.846Z,996.8
2023-02-27T05:28:44.925Z,996.9
2023-02-27T05:34:01.712Z,997
2023-02-27T05:39:21.065Z,997
2023-02-27T05:44:40.550Z,997.1
2023-02-27T05:50:08.859Z,997.1
2023-02-27T05:55:19.597Z,997.1
2023-02-27T06:00:38.847Z,997.1
2023-02-27T06:05:58.253Z,997.2
2023-02-27T06:11:17.716Z,997.1
2023-02-27T06:16:36.967Z,997.1
2023-02-27T06:21:56.000Z,997.1
2023-02-27T06:27:15.327Z,997.2
2023-02-27T06:32:35.068Z,997.2
2023-02-27T06:37:54.466Z,997.2
2023-02-27T06:38:19.176Z,997.2
2023-02-27T06:43:38.789Z,997.1
2023-02-27T06:48:57.798Z,997.2
2023-02-27T06:54:17.030Z,997.2
2023-02-27T06:59:36.116Z,997.1
2023-02-27T07:04:55.463Z,997.1
2023-02-27T07:10:14.521Z,997.2
2023-02-27T07:15:42.485Z,997.1
2023-02-27T07:20:52.306Z,997.1
2023-02-27T07:26:11.725Z,997.1
2023-02-27T07:31:31.199Z,997.2
2023-02-27T07:36:50.587Z,997.3
2023-02-27T07:42:09.862Z,997.3
2023-02-27T07:47:29.419Z,997.3
2023-02-27T07:52:48.667Z,997.3
2023-02-27T07:58:08.071Z,997.4
2023-02-27T08:03:27.257Z,997.3
2023-02-27T08:08:46.623Z,997.3
2023-02-27T08:14:05.880Z,997.2
2023-02-27T08:19:25.187Z,997.3
2023-02-27T08:24:45.246Z,997.4
2023-02-27T08:30:04.014Z,997.3
2023-02-27T08:35:22.803Z,997.3
2023-02-27T08:41:57.009Z,997.3
2023-02-27T08:46:02.607Z,997.3
2023-02-27T08:51:22.030Z,997.3
2023-02-27T08:56:41.158Z,997.3
2023-02-27T09:02:00.468Z,997.4
2023-02-27T09:07:19.562Z,997.4
2023-02-27T09:12:39.150Z,997.5
2023-02-27T09:17:58.082Z,997.5
2023-02-27T09:23:17.863Z,997.6
2023-02-27T09:28:36.502Z,997.5
2023-02-27T09:33:55.327Z,997.7
2023-02-27T09:39:14.162Z,997.7
2023-02-27T09:44:45.095Z,997.8
2023-02-27T09:49:52.367Z,997.8
2023-02-27T09:55:11.529Z,997.9
2023-02-27T10:00:30.883Z,997.8
2023-02-27T10:05:50.398Z,997.9
2023-02-27T10:11:09.737Z,997.8
2023-02-27T10:16:28.804Z,997.9
2023-02-27T10:21:47.830Z,998
2023-02-27T10:27:06.780Z,998
2023-02-27T10:32:25.710Z,997.9
2023-02-27T10:37:44.488Z,998
2023-02-27T10:43:06.166Z,997.9
2023-02-27T10:48:23.528Z,997.9
2023-02-27T10:53:43.093Z,997.6
2023-02-27T10:59:02.484Z,997.7
2023-02-27T11:04:21.500Z,997.8
2023-02-27T11:09:40.545Z,997.8
2023-02-27T11:14:59.573Z,997.8
2023-02-27T11:20:18.635Z,997.8
2023-02-27T11:25:38.339Z,997.8
2023-02-27T11:30:57.280Z,997.7
2023-02-27T11:36:17.798Z,997.8
2023-02-27T11:41:35.455Z,997.6
2023-02-27T11:46:54.334Z,997.6
2023-02-27T11:52:13.939Z,997.6
2023-02-27T11:57:33.179Z,997.6
2023-02-27T12:02:52.636Z,997.6
2023-02-27T12:08:12.166Z,997.6
2023-02-27T12:13:31.504Z,997.6
2023-02-27T12:18:51.045Z,997.6
2023-02-27T12:24:10.440Z,997.6
2023-02-27T12:29:28.084Z,997.5
2023-02-27T12:34:47.224Z,997.4
2023-02-27T12:40:06.498Z,997.3
2023-02-27T12:45:25.853Z,997.1
2023-02-27T12:50:44.828Z,997.2
2023-02-27T12:56:03.855Z,997.3
2023-02-27T13:01:23.133Z,997.3
2023-02-27T13:06:42.810Z,997.3
2023-02-27T13:12:01.337Z,997.3
2023-02-27T13:17:20.142Z,997.2
2023-02-27T13:22:39.441Z,997.2
2023-02-27T13:27:59.071Z,997.2
2023-02-27T13:33:19.372Z,997.1
2023-02-27T13:38:38.582Z,997.2
2023-02-27T13:43:57.508Z,997.2
2023-02-27T13:49:27.073Z,997.3
2023-02-27T13:54:35.716Z,997.3
2023-02-27T13:59:54.022Z,997.4
2023-02-27T14:05:12.911Z,997.3
2023-02-27T14:10:31.702Z,997.3
2023-02-27T14:15:51.377Z,997.3
2023-02-27T14:21:10.912Z,997.3
2023-02-27T14:26:29.948Z,997.4
2023-02-27T14:31:48.852Z,997.3
2023-02-27T14:37:08.331Z,997.2
2023-02-27T14:42:27.894Z,997.2
2023-02-27T14:47:46.873Z,997.3
2023-02-27T14:53:06.055Z,997.2
2023-02-27T14:58:25.561Z,997.2
2023-02-27T15:03:54.071Z,997.2
2023-02-27T15:09:04.875Z,997.1
2023-02-27T15:14:23.612Z,997.1
2023-02-27T15:19:43.245Z,997.1
2023-02-27T15:25:02.429Z,997.1
2023-02-27T15:30:21.796Z,997.2
2023-02-27T15:35:41.081Z,997.1
2023-02-27T15:41:00.204Z,997.1
2023-02-27T15:46:20.160Z,997
2023-02-27T15:51:39.696Z,997.1
2023-02-27T15:56:59.117Z,997.2
2023-02-27T16:02:18.827Z,997.2
2023-02-27T16:07:38.346Z,997.3
2023-02-27T16:12:57.607Z,997.4
2023-02-27T16:18:16.666Z,997.5
2023-02-27T16:23:35.694Z,997.6
2023-02-27T16:28:54.634Z,997.7
2023-02-27T16:34:13.980Z,997.8
2023-02-27T16:39:33.021Z,997.8
2023-02-27T16:44:52.062Z,997.9
2023-02-27T16:50:11.329Z,997.9
2023-02-27T16:56:45.537Z,998
2023-02-27T17:00:51.342Z,998.1
2023-02-27T17:06:10.131Z,998.2
2023-02-27T17:11:29.116Z,998.2
2023-02-27T17:20:02.212Z,998.2
2023-02-27T17:22:07.985Z,998.3
2023-02-27T17:27:25.798Z,998.4
2023-02-27T17:32:44.565Z,998.5
2023-02-27T17:38:06.070Z,998.6
2023-02-27T17:43:23.418Z,998.6
2023-02-27T17:48:42.780Z,998.7
2023-02-27T17:54:02.010Z,998.6
2023-02-27T17:59:21.078Z,998.7
2023-02-27T18:04:40.392Z,998.8
2023-02-27T18:09:59.343Z,998.8
2023-02-27T18:15:19.207Z,998.8
2023-02-27T18:20:37.653Z,998.9
2023-02-27T18:25:58.707Z,998.9
2023-02-27T18:31:15.640Z,998.9
2023-02-27T18:36:34.885Z,999
2023-02-27T18:41:55.281Z,999
2023-02-27T18:47:13.259Z,998.9
2023-02-27T18:52:35.655Z,998.9
2023-02-27T18:57:52.753Z,999
2023-02-27T19:03:12.067Z,999
2023-02-27T19:08:49.871Z,999
2023-02-27T19:13:51.347Z,999.1
2023-02-27T19:19:10.562Z,999
2023-02-27T19:24:30.725Z,999.1
2023-02-27T19:29:49.420Z,999.1
2023-02-27T19:35:08.884Z,999.1
2023-02-27T19:40:28.043Z,999.1
2023-02-27T19:45:48.027Z,999.1
2023-02-27T19:51:07.827Z,999.1
2023-02-27T19:56:27.291Z,999.2
2023-02-27T20:01:48.710Z,999.2
2023-02-27T20:07:06.315Z,999.1
2023-02-27T20:12:25.296Z,999.2
2023-02-27T20:17:44.271Z,999.3
2023-02-27T20:23:03.624Z,999.2
2023-02-27T20:28:23.841Z,999.1
2023-02-27T20:33:43.538Z,999.1
2023-02-27T20:39:03.322Z,999.1
2023-02-27T20:44:22.700Z,999.1
2023-02-27T20:49:42.110Z,999.1
2023-02-27T20:55:01.970Z,999.1
2023-02-27T21:00:20.943Z,999
2023-02-27T21:05:39.955Z,999
2023-02-27T21:10:59.470Z,999.1
2023-02-27T21:16:18.792Z,999
2023-02-27T21:21:37.547Z,998.9
2023-02-27T21:26:57.327Z,999
2023-02-27T21:32:16.446Z,998.9
2023-02-27T21:37:35.917Z,998.9
2023-02-27T21:42:55.460Z,999
2023-02-27T21:48:14.745Z,999
2023-02-27T21:53:33.629Z,998.9
2023-02-27T21:58:53.383Z,998.9
2023-02-27T22:04:12.966Z,998.8
2023-02-27T22:09:31.891Z,998.8
2023-02-27T22:14:51.261Z,998.8
2023-02-27T22:20:10.384Z,998.8
2023-02-27T22:25:29.574Z,998.8
2023-02-27T22:30:49.202Z,998.7
2023-02-27T22:36:08.062Z,998.8
2023-02-27T22:41:27.951Z,998.8
2023-02-27T22:46:47.434Z,998.7
2023-02-27T22:52:06.905Z,998.7
2023-02-27T22:57:26.560Z,998.7
2023-02-27T23:02:45.423Z,998.7
2023-02-27T23:08:04.666Z,998.7
2023-02-27T23:13:23.894Z,998.7
2023-02-27T23:18:42.226Z,998.7
2023-02-27T23:24:01.683Z,998.8
2023-02-27T23:29:20.817Z,998.7
2023-02-27T23:34:48.891Z,998.7
2023-02-27T23:40:00.042Z,998.7
2023-02-27T23:45:18.922Z,998.7
2023-02-27T23:50:38.055Z,998.6
2023-02-27T23:55:57.612Z,998.6
